Time;durP1;ratioP1;P1;durP2;ratioP2;P2;SDS_P1;SDS_P2;PMS_P1;PMS_P2;Temp;Humidity;BMP_temperature;BMP_pressure;BME280_temperature;BME280_humidity;BME280_pressure;Samples;Min_cycle;Max_cycle;Signal;HPM_P1;HPM_P2
2022/07/13 00:00:27;;;;;;;1.70;1.10;;;;;;;13.82;61.51;98929.04;220176;1277;25566;-74
2022/07/13 00:05:30;;;;;;;1.70;1.10;;;;;;;13.72;62.13;98926.08;220070;1277;22615;-73
2022/07/13 00:10:33;;;;;;;2.70;1.20;;;;;;;13.64;62.21;98931.66;220159;1277;25371;-73
2022/07/13 00:15:35;;;;;;;3.30;1.40;;;;;;;13.55;62.30;98930.34;219946;1276;240710;-73
2022/07/13 00:20:41;;;;;;;1.30;1.10;;;;;;;13.46;62.67;98922.27;220243;1276;23708;-74
2022/07/13 00:25:43;;;;;;;1.60;1.30;;;;;;;13.39;63.00;98921.76;220349;1276;22551;-73
2022/07/13 00:30:45;;;;;;;2.50;1.30;;;;;;;13.33;63.30;98921.50;219987;1276;24242;-74
2022/07/13 00:35:58;;;;;;;1.30;1.00;;;;;;;13.29;63.43;98917.94;220203;1276;24292;-74
2022/07/13 00:41:05;;;;;;;1.30;1.20;;;;;;;13.25;63.61;98919.86;220105;1276;24334;-73
2022/07/13 00:46:09;;;;;;;2.90;1.30;;;;;;;13.21;64.01;98921.11;220087;1276;24442;-72
2022/07/13 00:51:11;;;;;;;2.20;1.90;;;;;;;13.17;64.02;98924.57;220251;1276;24231;-73
2022/07/13 00:56:13;;;;;;;1.60;1.20;;;;;;;13.13;64.23;98928.57;220318;1276;22559;-73
2022/07/13 01:01:19;;;;;;;1.90;1.30;;;;;;;13.10;64.39;98928.13;219960;1276;24157;-73
2022/07/13 01:06:22;;;;;;;2.50;1.80;;;;;;;13.07;64.53;98931.58;220045;1276;22573;-75
2022/07/13 01:11:24;;;;;;;2.80;1.40;;;;;;;13.03;64.75;98928.53;220209;1278;24553;-74
2022/07/13 01:16:37;;;;;;;2.20;1.60;;;;;;;12.99;64.94;98928.77;220250;1276;22650;-74
2022/07/13 01:21:42;;;;;;;1.50;1.30;;;;;;;12.97;65.04;98928.30;220290;1276;22560;-74
2022/07/13 01:26:45;;;;;;;3.20;1.40;;;;;;;12.93;65.14;98927.98;220214;1276;24292;-74
2022/07/13 01:31:48;;;;;;;2.60;1.50;;;;;;;12.88;65.21;98927.66;220178;1276;22775;-73
2022/07/13 01:36:51;;;;;;;3.20;1.60;;;;;;;12.83;65.59;98927.27;220117;1276;22581;-73
2022/07/13 01:41:55;;;;;;;2.30;1.60;;;;;;;12.80;65.53;98928.30;220131;1276;22550;-74
2022/07/13 01:47:06;;;;;;;2.70;1.60;;;;;;;12.74;65.77;98932.81;220100;1276;22627;-73
2022/07/13 01:52:11;;;;;;;4.40;1.70;;;;;;;12.69;65.99;98930.97;220008;1276;22580;-74
2022/07/13 01:57:14;;;;;;;2.30;1.60;;;;;;;12.64;66.21;98936.02;220198;1276;22551;-74
2022/07/13 02:02:17;;;;;;;4.40;1.80;;;;;;;12.59;66.38;98940.19;220096;1276;22546;-74
2022/07/13 02:07:23;;;;;;;2.90;1.80;;;;;;;12.53;66.60;98935.09;220236;1276;23145;-75
2022/07/13 02:12:26;;;;;;;6.20;2.10;;;;;;;12.47;66.91;98934.00;220308;1276;22938;-74
2022/07/13 02:17:31;;;;;;;4.30;1.90;;;;;;;12.42;66.91;98931.69;220137;1276;24177;-73
2022/07/13 02:22:44;;;;;;;3.20;2.00;;;;;;;12.36;67.23;98933.73;220309;1276;22542;-73
2022/07/13 02:27:47;;;;;;;3.40;1.80;;;;;;;12.28;67.49;98932.58;220268;1276;24306;-73
2022/07/13 02:32:50;;;;;;;3.40;2.00;;;;;;;12.20;67.73;98922.78;220412;1276;24242;-74
2022/07/13 02:37:53;;;;;;;2.60;1.70;;;;;;;12.13;67.62;98923.54;220319;1276;22580;-73
2022/07/13 02:42:56;;;;;;;3.70;2.00;;;;;;;12.08;68.04;98926.90;219972;1279;22739;-74
2022/07/13 02:47:59;;;;;;;2.90;1.60;;;;;;;12.03;68.31;98924.25;219943;1279;22584;-73
2022/07/13 02:53:17;;;;;;;1.40;1.30;;;;;;;11.99;68.72;98924.20;219776;1278;24220;-74
2022/07/13 02:58:19;;;;;;;2.00;1.60;;;;;;;11.94;68.91;98919.55;220117;1278;22481;-73
2022/07/13 03:03:21;;;;;;;4.10;1.90;;;;;;;11.91;69.29;98914.90;219981;1279;23908;-74
2022/07/13 03:08:25;;;;;;;3.80;1.80;;;;;;;11.90;69.58;98917.84;220105;1276;22540;-74
2022/07/13 03:13:28;;;;;;;3.10;2.00;;;;;;;11.88;69.93;98911.47;220284;1276;22999;-73
2022/07/13 03:18:33;;;;;;;3.40;1.60;;;;;;;11.89;69.78;98917.84;220148;1276;26360;-74
2022/07/13 03:23:41;;;;;;;3.50;2.00;;;;;;;11.91;69.87;98922.21;220230;1276;22835;-73
2022/07/13 03:28:45;;;;;;;3.60;2.00;;;;;;;12.01;69.99;98926.97;220001;1279;23344;-73
2022/07/13 03:33:49;;;;;;;3.20;2.10;;;;;;;12.25;70.21;98918.35;220228;1276;22604;-74
2022/07/13 03:38:57;;;;;;;4.40;2.20;;;;;;;12.64;70.07;98915.48;220196;1279;23868;-73
2022/07/13 03:44:13;;;;;;;1.90;1.70;;;;;;;13.17;69.63;98908.56;220013;1279;22576;-74
2022/07/13 03:49:16;;;;;;;3.00;1.90;;;;;;;13.64;68.83;98915.44;220056;1279;22755;-74
2022/07/13 03:54:18;;;;;;;2.30;1.60;;;;;;;14.20;68.31;98919.39;220049;1279;22638;-73
2022/07/13 03:59:23;;;;;;;2.80;2.00;;;;;;;14.85;67.28;98918.01;219847;1279;24305;-73
2022/07/13 04:04:27;;;;;;;2.10;1.30;;;;;;;15.39;66.05;98926.97;220298;1279;25462;-74
2022/07/13 04:10:04;;;;;;;1.50;1.30;;;;;;;15.77;65.33;98921.33;220125;1276;22558;-73
2022/07/13 04:15:12;;;;;;;1.40;1.00;;;;;;;16.14;65.08;98931.18;220251;1276;22567;-73
2022/07/13 04:20:16;;;;;;;2.80;1.20;;;;;;;16.28;64.84;98929.99;220170;1277;22570;-75
2022/07/13 04:25:21;;;;;;;1.70;1.20;;;;;;;16.29;64.44;98938.52;220142;1276;22572;-74
2022/07/13 04:30:24;;;;;;;2.80;1.00;;;;;;;16.14;64.33;98939.50;220244;1276;22882;-73
2022/07/13 04:35:27;;;;;;;1.40;1.00;;;;;;;15.99;64.38;98934.95;220157;1276;22676;-74
2022/07/13 04:40:30;;;;;;;1.20;1.10;;;;;;;15.83;64.53;98931.44;220273;1276;22540;-74
2022/07/13 04:45:34;;;;;;;2.30;1.20;;;;;;;15.77;64.77;98933.42;220122;1277;24248;-74
2022/07/13 04:50:37;;;;;;;1.50;1.20;;;;;;;15.73;64.96;98935.14;220462;1276;25451;-74
2022/07/13 04:55:41;;;;;;;2.00;1.20;;;;;;;15.73;65.14;98935.48;220336;1276;23205;-73
2022/07/13 05:00:44;;;;;;;1.40;1.20;;;;;;;15.76;65.23;98939.42;220153;1276;26463;-73
2022/07/13 05:06:10;;;;;;;2.90;1.60;;;;;;;15.80;65.28;98940.95;220303;1276;22532;-73
2022/07/13 05:11:13;;;;;;;1.10;1.00;;;;;;;15.86;65.30;98944.21;220092;1276;25358;-73
2022/07/13 05:16:23;;;;;;;2.70;1.40;;;;;;;15.95;65.37;98949.93;220318;1277;25321;-73
2022/07/13 05:21:43;;;;;;;;;;;;;;;;;;;;;
2022/07/13 05:27:12;;;;;;;1.80;1.20;;;;;;;16.20;65.16;98919.88;220269;1276;22574;-74
2022/07/13 05:32:27;;;;;;;1.70;1.60;;;;;;;16.35;65.15;98927.91;220189;1276;22622;-74
2022/07/13 05:37:50;;;;;;;2.60;1.00;;;;;;;16.51;65.07;98929.09;220386;1276;24487;-74
2022/07/13 05:42:53;;;;;;;2.20;1.70;;;;;;;16.69;64.95;98927.18;220086;1276;22560;-72
2022/07/13 05:48:00;;;;;;;2.30;1.40;;;;;;;16.88;64.69;98929.27;220231;1277;24281;-74
2022/07/13 05:53:03;;;;;;;1.80;1.10;;;;;;;17.07;64.52;98934.88;220614;1277;22699;-72
2022/07/13 05:58:07;;;;;;;1.40;1.30;;;;;;;17.27;64.29;98945.39;220805;1276;25263;-73
2022/07/13 06:03:10;;;;;;;1.40;1.30;;;;;;;17.47;64.15;98944.20;220744;1277;22540;-74
2022/07/13 06:08:13;;;;;;;1.60;1.30;;;;;;;17.68;64.06;98945.44;220393;1276;24464;-74
2022/07/13 06:13:15;;;;;;;2.80;1.30;;;;;;;17.89;63.90;98942.69;220487;1276;22608;-73
2022/07/13 06:18:17;;;;;;;1.90;1.00;;;;;;;18.11;63.72;98947.51;220449;1276;22540;-73
2022/07/13 06:23:21;;;;;;;1.00;0.90;;;;;;;18.32;63.42;98940.48;220478;1276;22495;-74
2022/07/13 06:28:26;;;;;;;3.40;1.00;;;;;;;18.54;63.26;98942.93;220426;1279;22540;-74
2022/07/13 06:33:32;;;;;;;1.30;1.20;;;;;;;18.75;62.81;98942.27;220587;1276;22651;-74
2022/07/13 06:38:34;;;;;;;1.80;1.20;;;;;;;18.95;62.29;98939.44;220597;1276;25388;-74
2022/07/13 06:43:37;;;;;;;1.40;1.10;;;;;;;19.17;62.07;98942.05;220449;1276;25359;-74
2022/07/13 06:48:40;;;;;;;1.20;1.00;;;;;;;19.33;61.19;98947.02;220554;1276;24231;-73
2022/07/13 06:53:49;;;;;;;1.20;1.00;;;;;;;19.48;60.87;98946.77;220630;1276;25370;-74
2022/07/13 06:58:52;;;;;;;1.70;1.20;;;;;;;19.65;60.34;98943.27;220586;1277;23089;-73
2022/07/13 07:03:55;;;;;;;1.40;0.90;;;;;;;19.83;60.26;98943.58;220517;1277;22532;-72
2022/07/13 07:08:58;;;;;;;2.10;1.10;;;;;;;20.04;59.59;98949.90;220535;1276;22548;-74
2022/07/13 07:14:01;;;;;;;3.40;1.10;;;;;;;20.21;59.18;98949.73;220551;1276;25656;-73
2022/07/13 07:19:04;;;;;;;3.40;1.30;;;;;;;20.44;58.51;98950.93;220596;1276;22545;-74
2022/07/13 07:24:27;;;;;;;1.60;1.00;;;;;;;20.66;58.26;98950.17;220507;1276;26143;-74
2022/07/13 07:29:30;;;;;;;1.10;1.00;;;;;;;20.90;57.64;98948.65;220522;1278;22592;-74
2022/07/13 07:34:33;;;;;;;2.20;1.00;;;;;;;21.09;56.83;98946.06;220520;1276;22636;-72
2022/07/13 07:39:36;;;;;;;1.70;1.00;;;;;;;21.24;56.28;98944.76;220561;1278;22630;-75
2022/07/13 07:44:44;;;;;;;0.70;0.70;;;;;;;21.39;55.42;98940.02;220505;1278;22672;-75
2022/07/13 07:49:47;;;;;;;1.60;0.70;;;;;;;21.54;54.59;98935.77;220658;1276;22481;-72
2022/07/13 07:54:52;;;;;;;0.70;0.70;;;;;;;21.68;54.13;98941.81;220696;1277;24227;-74
2022/07/13 07:59:58;;;;;;;1.50;1.00;;;;;;;21.88;53.52;98948.91;220582;1278;24111;-73
2022/07/13 08:05:01;;;;;;;0.60;0.60;;;;;;;22.03;52.84;98943.42;220559;1276;22712;-73
2022/07/13 08:10:04;;;;;;;1.00;0.70;;;;;;;22.19;52.14;98947.77;220433;1277;22538;-73
2022/07/13 08:15:28;;;;;;;0.50;0.50;;;;;;;22.32;51.53;98946.30;220453;1277;22604;-74
2022/07/13 08:20:30;;;;;;;1.00;0.70;;;;;;;22.37;51.18;98943.13;220533;1277;22654;-73
2022/07/13 08:25:33;;;;;;;1.20;0.80;;;;;;;22.52;51.03;98939.79;220501;1276;22570;-74
2022/07/13 08:30:41;;;;;;;1.10;1.00;;;;;;;22.64;50.58;98942.09;220392;1276;24127;-74
2022/07/13 08:41:05;;;;;;;1.00;0.70;;;;;;;22.80;49.40;98940.38;220648;1278;22924;-73
2022/07/13 08:46:08;;;;;;;1.00;0.90;;;;;;;22.86;48.66;98940.65;220505;1278;25409;-73
2022/07/13 08:51:10;;;;;;;0.80;0.70;;;;;;;23.00;48.89;98940.61;220546;1276;23317;-74
2022/07/13 08:56:15;;;;;;;0.90;0.90;;;;;;;23.19;48.76;98940.52;220454;1277;26632;-74
2022/07/13 09:01:19;;;;;;;1.30;0.70;;;;;;;23.33;47.70;98935.41;220470;1277;25248;-73
2022/07/13 09:06:56;;;;;;;0.60;0.60;;;;;;;23.42;46.48;98932.41;220811;1278;22549;-73
2022/07/13 09:12:21;;;;;;;1.20;0.70;;;;;;;23.54;45.70;98939.35;220614;1277;24282;-74
2022/07/13 09:17:31;;;;;;;0.80;0.70;;;;;;;23.72;45.45;98934.50;220470;1276;22772;-74
2022/07/13 09:22:45;;;;;;;3.50;0.70;;;;;;;23.86;44.85;98931.45;220632;1278;22629;-73
2022/07/13 09:27:47;;;;;;;1.00;0.90;;;;;;;23.96;44.98;98933.91;220448;1278;22603;-74
2022/07/13 09:32:59;;;;;;;0.70;0.60;;;;;;;24.06;44.34;98937.09;220714;1278;22649;-74
2022/07/13 09:38:02;;;;;;;0.90;0.80;;;;;;;24.17;44.02;98933.60;220860;1278;25128;-74
2022/07/13 09:48:31;;;;;;;2.30;0.80;;;;;;;24.42;43.49;98935.31;220543;1278;22570;-73
2022/07/13 09:53:36;;;;;;;0.80;0.80;;;;;;;24.59;42.99;98937.03;220518;1278;22661;-75
2022/07/13 09:58:46;;;;;;;1.20;0.80;;;;;;;24.72;42.75;98937.85;220649;1276;23799;-74
2022/07/13 10:03:54;;;;;;;2.80;1.10;;;;;;;24.88;42.56;98940.32;220608;1278;22713;-74
2022/07/13 10:08:56;;;;;;;1.40;1.00;;;;;;;24.86;42.53;98942.64;220709;1278;24108;-74
2022/07/13 10:14:06;;;;;;;1.50;1.40;;;;;;;24.84;42.36;98944.75;220342;1277;25958;-75
2022/07/13 10:19:21;;;;;;;2.00;1.00;;;;;;;24.99;42.19;98941.10;220509;1278;24251;-75
2022/07/13 10:24:31;;;;;;;1.60;1.50;;;;;;;25.07;40.42;98944.20;220507;1278;24244;-74
2022/07/13 10:29:46;;;;;;;1.70;0.90;;;;;;;25.18;40.21;98941.28;220742;1278;22761;-75
2022/07/13 10:34:59;;;;;;;0.80;0.70;;;;;;;25.46;39.57;98950.16;220420;1278;22785;-75
2022/07/13 10:40:12;;;;;;;1.50;0.60;;;;;;;25.70;39.12;98945.02;220813;1278;22710;-75
2022/07/13 10:45:43;;;;;;;0.60;0.50;;;;;;;25.59;38.34;98948.82;220694;1278;27494;-75
2022/07/13 10:51:17;;;;;;;0.70;0.70;;;;;;;25.44;38.81;98951.72;220676;1278;23814;-73
2022/07/13 10:56:21;;;;;;;2.30;0.70;;;;;;;25.53;39.24;98957.09;220711;1276;25329;-75
2022/07/13 11:01:43;;;;;;;0.50;0.50;;;;;;;25.68;39.08;98950.50;220520;1276;22732;-74
2022/07/13 11:07:06;;;;;;;8.50;5.70;;;;;;;25.77;38.28;98943.55;220787;1278;22553;-73
2022/07/13 11:12:23;;;;;;;0.70;0.70;;;;;;;25.79;38.43;98940.81;220661;1276;22564;-74
2022/07/13 11:17:27;;;;;;;0.80;0.50;;;;;;;26.00;38.57;98935.73;220452;1277;25497;-74
2022/07/13 11:28:31;;;;;;;0.40;0.40;;;;;;;26.33;37.31;98934.61;220496;1278;22586;-74
2022/07/13 11:33:37;;;;;;;0.50;0.50;;;;;;;26.31;37.20;98923.71;220587;1278;25258;-76
2022/07/13 11:38:43;;;;;;;1.40;0.50;;;;;;;26.34;37.11;98920.96;220653;1278;24290;-76
2022/07/13 11:43:47;;;;;;;1.00;0.60;;;;;;;26.32;37.15;98913.89;220595;1276;22725;-76
2022/07/13 11:49:09;;;;;;;0.60;0.50;;;;;;;26.45;37.17;98911.06;220736;1276;22763;-77
2022/07/13 11:54:21;;;;;;;1.50;0.50;;;;;;;26.69;36.42;98906.05;220623;1276;24345;-76
2022/07/13 11:59:38;;;;;;;2.70;1.30;;;;;;;26.89;36.48;98903.69;220681;1276;23746;-76
2022/07/13 12:04:55;;;;;;;0.60;0.60;;;;;;;27.10;36.25;98903.80;215522;1304;543038;-76
2022/07/13 12:09:59;;;;;;;0.60;0.60;;;;;;;27.27;36.32;98902.35;220330;1281;25401;-76
2022/07/13 12:15:03;;;;;;;1.10;0.60;;;;;;;27.43;35.71;98901.04;220009;1281;441991;-76
2022/07/13 12:20:14;;;;;;;1.20;0.80;;;;;;;27.76;36.53;98898.45;220932;1277;25576;-77
2022/07/13 12:25:34;;;;;;;0.90;0.80;;;;;;;28.07;35.45;98894.60;220733;1280;22726;-78
2022/07/13 12:31:03;;;;;;;2.00;1.80;;;;;;;28.03;34.99;98899.25;220683;1280;25437;-76
2022/07/13 12:36:05;;;;;;;1.00;0.70;;;;;;;27.83;34.82;98905.10;220318;1280;23215;-76
2022/07/13 12:41:08;;;;;;;2.00;0.80;;;;;;;27.70;35.11;98899.66;220425;1281;22683;-76
2022/07/13 12:46:12;;;;;;;0.90;0.60;;;;;;;27.70;35.31;98896.75;220413;1281;22476;-76
2022/07/13 12:51:19;;;;;;;0.70;0.70;;;;;;;27.73;35.49;98892.09;221146;1280;25138;-76
2022/07/13 12:56:24;;;;;;;0.90;0.80;;;;;;;27.71;35.26;98884.41;222173;1271;22699;-76
2022/07/13 13:01:32;;;;;;;1.20;1.10;;;;;;;27.85;35.59;98880.01;222780;1268;25204;-76
2022/07/13 13:06:49;;;;;;;1.10;1.10;;;;;;;28.02;35.52;98873.08;222514;1268;22635;-76
2022/07/13 13:12:06;;;;;;;2.10;0.90;;;;;;;28.08;35.49;98869.10;222134;1268;25418;-75
2022/07/13 13:17:12;;;;;;;0.60;0.60;;;;;;;27.92;35.00;98859.66;222024;1268;24846;-76
2022/07/13 13:22:15;;;;;;;0.80;0.80;;;;;;;27.73;35.25;98856.56;221812;1268;22714;-76
2022/07/13 13:27:19;;;;;;;1.00;0.90;;;;;;;27.65;35.67;98851.73;221663;1268;22563;-76
2022/07/13 13:32:41;;;;;;;2.20;0.90;;;;;;;27.76;35.89;98838.85;221907;1268;22616;-75
2022/07/13 13:37:46;;;;;;;1.40;0.90;;;;;;;27.79;35.48;98833.64;221908;1268;25253;-74
2022/07/13 13:42:49;;;;;;;0.90;0.90;;;;;;;27.68;34.86;98830.88;221982;1268;22708;-75
2022/07/13 13:47:55;;;;;;;3.50;2.40;;;;;;;27.54;35.24;98828.30;222042;1268;24259;-72
2022/07/13 13:52:57;;;;;;;1.00;1.00;;;;;;;27.55;35.86;98825.14;221996;1268;22585;-74
2022/07/13 13:58:15;;;;;;;0.90;0.90;;;;;;;27.68;35.52;98828.92;222013;1268;22659;-76
2022/07/13 14:03:17;;;;;;;1.60;0.70;;;;;;;27.79;35.33;98825.86;222073;1268;25372;-73
2022/07/13 14:08:20;;;;;;;1.00;0.90;;;;;;;27.82;35.29;98825.76;221657;1268;25353;-74
2022/07/13 14:13:22;;;;;;;1.50;0.90;;;;;;;27.88;35.54;98816.91;221496;1268;22558;-73
2022/07/13 14:18:27;;;;;;;1.10;1.00;;;;;;;28.11;35.09;98809.69;221659;1268;22706;-73
2022/07/13 14:23:29;;;;;;;1.50;1.00;;;;;;;28.23;35.05;98807.30;221589;1268;28099;-73
2022/07/13 14:28:31;;;;;;;1.10;1.00;;;;;;;28.27;34.95;98802.31;221718;1268;22754;-73
2022/07/13 14:33:36;;;;;;;0.80;0.80;;;;;;;28.46;34.45;98795.59;221769;1268;22556;-75
2022/07/13 14:38:38;;;;;;;1.70;1.00;;;;;;;28.67;34.38;98791.61;221723;1268;24266;-73
2022/07/13 14:43:48;;;;;;;1.00;0.90;;;;;;;28.65;33.90;98790.86;221469;1268;22540;-73
2022/07/13 14:48:51;;;;;;;1.50;1.40;;;;;;;28.54;33.68;98788.34;221628;1268;23003;-73
2022/07/13 14:54:13;;;;;;;1.40;1.30;;;;;;;28.48;33.92;98786.05;221863;1268;22688;-74
2022/07/13 14:59:15;;;;;;;1.00;1.00;;;;;;;28.46;33.87;98788.20;221570;1268;23786;-73
2022/07/13 15:04:19;;;;;;;0.60;0.60;;;;;;;28.37;33.99;98782.47;221686;1268;22555;-74
2022/07/13 15:09:22;;;;;;;1.00;0.90;;;;;;;28.45;33.88;98786.78;221470;1268;22580;-73
2022/07/13 15:14:53;;;;;;;1.70;1.00;;;;;;;28.29;33.59;98790.02;221596;1268;25314;-74
2022/07/13 15:20:16;;;;;;;1.40;0.70;;;;;;;28.09;33.83;98788.13;221423;1268;22730;-73
2022/07/13 15:25:19;;;;;;;1.10;1.00;;;;;;;28.13;33.45;98784.02;221699;1268;25340;-74
2022/07/13 15:30:24;;;;;;;0.90;0.80;;;;;;;28.24;33.62;98776.77;221599;1268;22589;-73
2022/07/13 15:35:33;;;;;;;0.80;0.80;;;;;;;28.36;33.58;98769.48;221584;1268;25585;-74
2022/07/13 15:46:13;;;;;;;0.80;0.60;;;;;;;28.37;32.55;98755.08;221619;1268;22704;-75
2022/07/13 15:51:16;;;;;;;2.10;0.80;;;;;;;28.31;32.25;98752.23;221789;1268;25355;-72
2022/07/13 15:56:18;;;;;;;0.90;0.90;;;;;;;28.33;32.43;98746.92;221287;1271;25734;-73
2022/07/13 16:01:21;;;;;;;1.00;0.90;;;;;;;28.33;32.74;98746.14;221601;1271;23562;-74
2022/07/13 16:06:32;;;;;;;0.80;0.70;;;;;;;28.37;32.79;98747.76;221388;1271;22691;-75
2022/07/13 16:11:35;;;;;;;0.70;0.70;;;;;;;28.39;32.14;98745.85;221788;1268;23973;-75
2022/07/13 16:16:49;;;;;;;1.10;0.90;;;;;;;28.27;32.23;98745.66;221760;1268;22557;-73
2022/07/13 16:22:12;;;;;;;1.60;1.50;;;;;;;28.11;33.05;98753.05;221680;1268;25092;-73
2022/07/13 16:27:14;;;;;;;2.10;1.10;;;;;;;28.14;33.64;98750.80;221629;1268;26502;-74
2022/07/13 16:32:17;;;;;;;1.30;1.20;;;;;;;28.18;34.10;98755.41;221778;1268;26498;-73
2022/07/13 16:37:19;;;;;;;3.50;3.00;;;;;;;28.25;34.36;98750.46;221677;1268;24273;-72
2022/07/13 16:42:21;;;;;;;1.30;1.10;;;;;;;28.48;34.36;98747.88;221542;1268;25338;-74
2022/07/13 16:47:24;;;;;;;3.20;1.60;;;;;;;28.53;34.00;98747.04;221597;1268;24395;-72
2022/07/13 16:52:26;;;;;;;3.90;1.50;;;;;;;28.43;34.40;98749.42;221664;1268;24333;-72
2022/07/13 16:57:29;;;;;;;1.40;1.30;;;;;;;28.21;34.29;98747.60;221682;1268;22551;-73
2022/07/13 17:02:33;;;;;;;2.40;1.20;;;;;;;28.09;34.91;98747.79;221609;1268;22613;-72
2022/07/13 17:07:36;;;;;;;1.20;1.10;;;;;;;28.11;35.14;98752.58;221589;1268;22733;-73
2022/07/13 17:12:39;;;;;;;5.90;5.40;;;;;;;28.11;34.99;98752.80;221384;1268;24332;-73
2022/07/13 17:17:41;;;;;;;2.40;2.00;;;;;;;28.28;34.94;98756.59;221825;1268;22519;-72
2022/07/13 17:22:46;;;;;;;0.90;0.90;;;;;;;29.42;34.77;98750.09;221879;1268;24143;-74
2022/07/13 17:27:48;;;;;;;2.90;1.70;;;;;;;30.39;32.91;98752.50;221785;1268;25445;-73
2022/07/13 17:32:51;;;;;;;1.10;1.00;;;;;;;30.73;32.62;98757.02;221785;1271;22535;-72
2022/07/13 17:37:53;;;;;;;1.20;1.20;;;;;;;30.87;32.31;98754.77;221588;1268;24215;-73
2022/07/13 17:42:56;;;;;;;4.90;4.50;;;;;;;31.49;31.56;98755.32;221610;1269;24214;-73
2022/07/13 17:48:01;;;;;;;7.40;6.80;;;;;;;31.07;31.00;98753.84;221697;1268;22789;-73
2022/07/13 17:53:07;;;;;;;1.90;1.30;;;;;;;30.21;31.44;98748.33;221186;1270;24226;-74
2022/07/13 17:58:10;;;;;;;1.70;1.00;;;;;;;29.20;31.89;98747.56;221385;1269;24107;-73
2022/07/13 18:03:17;;;;;;;2.50;2.30;;;;;;;28.19;32.69;98742.96;221087;1270;22703;-73
2022/07/13 18:08:20;;;;;;;1.40;1.30;;;;;;;27.41;33.61;98742.06;221483;1271;22603;-73
2022/07/13 18:13:56;;;;;;;1.20;0.90;;;;;;;26.81;34.53;98743.52;221395;1271;25375;-72
2022/07/13 18:19:03;;;;;;;3.10;1.00;;;;;;;26.29;35.33;98745.94;221423;1271;24198;-72
2022/07/13 18:24:06;;;;;;;2.30;1.30;;;;;;;25.87;36.07;98744.14;221395;1271;22643;-73
2022/07/13 18:29:08;;;;;;;3.10;1.20;;;;;;;25.51;36.70;98743.33;221319;1271;24287;-73
2022/07/13 18:34:11;;;;;;;1.30;1.20;;;;;;;25.21;37.37;98743.33;221626;1271;24252;-74
2022/07/13 18:39:13;;;;;;;3.50;2.10;;;;;;;24.96;37.89;98744.97;221677;1271;22575;-75
2022/07/13 18:44:19;;;;;;;2.70;2.30;;;;;;;24.76;38.37;98751.86;221874;1271;22725;-73
2022/07/13 18:49:21;;;;;;;2.80;1.50;;;;;;;24.61;38.89;98753.96;221578;1271;22574;-72
2022/07/13 18:54:26;;;;;;;3.10;2.40;;;;;;;24.46;39.15;98752.53;221398;1268;22574;-73
2022/07/13 18:59:28;;;;;;;3.20;2.50;;;;;;;24.32;39.68;98750.96;221849;1268;22575;-73
2022/07/13 19:04:30;;;;;;;7.80;3.00;;;;;;;24.18;40.17;98757.45;221656;1268;22612;-73
2022/07/13 19:09:33;;;;;;;2.20;1.60;;;;;;;24.06;40.48;98759.39;221565;1268;22550;-74
2022/07/13 19:14:35;;;;;;;3.90;2.10;;;;;;;23.94;40.88;98759.61;221432;1271;22597;-73
2022/07/13 19:19:38;;;;;;;2.50;2.30;;;;;;;23.82;41.14;98766.42;221463;1271;22528;-72
2022/07/13 19:30:08;;;;;;;1.70;1.60;;;;;;;23.58;41.77;98764.35;221541;1271;22633;-72
2022/07/13 19:35:10;;;;;;;1.90;1.80;;;;;;;23.48;42.11;98765.73;221172;1271;22631;-73
2022/07/13 19:40:13;;;;;;;8.50;5.60;;;;;;;23.38;42.42;98760.47;221683;1268;22675;-73
2022/07/13 19:45:15;;;;;;;3.20;2.40;;;;;;;23.31;42.65;98764.92;221500;1268;24562;-73
2022/07/13 19:50:18;;;;;;;2.30;2.00;;;;;;;23.26;42.82;98760.74;221805;1268;22553;-73
2022/07/13 19:55:20;;;;;;;3.40;3.10;;;;;;;23.21;43.15;98760.53;221679;1271;23342;-73
2022/07/13 20:00:26;;;;;;;3.60;2.60;;;;;;;23.16;43.55;98764.05;221387;1271;25441;-76
2022/07/13 20:05:29;;;;;;;3.10;1.80;;;;;;;23.11;43.77;98767.83;221439;1269;22573;-72
2022/07/13 20:10:31;;;;;;;2.70;1.80;;;;;;;23.04;43.90;98768.66;221602;1268;22556;-72
2022/07/13 20:15:34;;;;;;;3.00;2.00;;;;;;;22.98;44.02;98762.96;221398;1271;23966;-74
2022/07/13 20:20:36;;;;;;;1.40;1.30;;;;;;;22.94;44.18;98762.53;221070;1268;22602;-74
2022/07/13 20:25:38;;;;;;;1.50;1.40;;;;;;;22.89;44.37;98760.29;221357;1268;25388;-73
2022/07/13 20:30:40;;;;;;;1.40;1.30;;;;;;;22.85;44.55;98762.33;221486;1268;25331;-72
2022/07/13 20:35:56;;;;;;;1.70;1.60;;;;;;;22.78;44.61;98763.34;221143;1274;23805;-74
2022/07/13 20:41:06;;;;;;;3.00;1.50;;;;;;;22.70;45.05;98763.16;221534;1269;24239;-73
2022/07/13 20:46:09;;;;;;;7.60;6.70;;;;;;;22.63;45.24;98765.33;221470;1271;22724;-74
2022/07/13 20:51:13;;;;;;;7.90;5.90;;;;;;;22.58;45.34;98764.48;221502;1269;25554;-73
2022/07/13 20:56:16;;;;;;;1.80;1.70;;;;;;;22.53;45.53;98755.45;221780;1268;22694;-72
2022/07/13 21:01:19;;;;;;;2.30;1.50;;;;;;;22.47;45.66;98756.54;221556;1271;22502;-75
2022/07/13 21:06:22;;;;;;;1.90;1.80;;;;;;;22.43;45.88;98755.30;221390;1268;22538;-73
2022/07/13 21:11:24;;;;;;;1.60;1.50;;;;;;;22.38;45.96;98751.27;221514;1268;22532;-73
2022/07/13 21:16:27;;;;;;;1.90;1.80;;;;;;;22.33;46.18;98747.82;221557;1268;22543;-73
2022/07/13 21:21:30;;;;;;;3.60;2.20;;;;;;;22.28;46.18;98750.55;221340;1269;23830;-73
2022/07/13 21:26:32;;;;;;;1.80;1.70;;;;;;;22.24;46.38;98746.89;221415;1268;24230;-74
2022/07/13 21:31:35;;;;;;;2.10;1.40;;;;;;;22.18;46.46;98744.86;221650;1268;23798;-74
2022/07/13 21:36:37;;;;;;;1.80;1.50;;;;;;;22.15;46.62;98739.12;221859;1271;22627;-72
2022/07/13 21:41:39;;;;;;;3.10;1.50;;;;;;;22.11;46.69;98737.59;221662;1271;22683;-74
2022/07/13 21:46:42;;;;;;;1.90;1.20;;;;;;;22.08;46.72;98735.89;221237;1271;22575;-73
2022/07/13 21:51:45;;;;;;;2.30;1.60;;;;;;;22.06;46.79;98736.17;221802;1268;22552;-73
2022/07/13 21:56:47;;;;;;;2.00;1.70;;;;;;;22.04;46.81;98733.66;221564;1268;24680;-73
2022/07/13 22:01:49;;;;;;;1.70;1.50;;;;;;;22.03;46.91;98728.29;221595;1268;22482;-72
2022/07/13 22:07:31;;;;;;;2.30;2.10;;;;;;;22.00;47.04;98725.65;221636;1268;22518;-73
2022/07/13 22:13:11;;;;;;;1.90;1.70;;;;;;;21.96;47.17;98726.14;221534;1268;22538;-71
2022/07/13 22:18:51;;;;;;;1.80;1.70;;;;;;;21.89;47.36;98725.64;221246;1271;25324;-73
2022/07/13 22:24:31;;;;;;;2.80;1.80;;;;;;;21.79;47.54;98725.15;221244;1271;22559;-74
2022/07/13 22:30:11;;;;;;;2.80;1.70;;;;;;;21.67;47.74;98718.51;221842;1268;24171;-74
2022/07/13 22:35:51;;;;;;;1.40;1.30;;;;;;;21.57;47.81;98717.64;221661;1268;24246;-73
2022/07/13 22:41:31;;;;;;;3.00;1.60;;;;;;;21.49;47.93;98717.70;221757;1268;23788;-73
2022/07/13 22:47:11;;;;;;;1.90;1.30;;;;;;;21.40;48.09;98716.30;221895;1268;24248;-72
2022/07/13 22:52:51;;;;;;;1.90;1.60;;;;;;;21.30;48.23;98713.94;221797;1268;22576;-73
2022/07/13 22:58:31;;;;;;;1.40;1.30;;;;;;;21.18;48.42;98713.09;221635;1271;24284;-73
2022/07/13 23:04:11;;;;;;;1.30;1.10;;;;;;;21.04;48.74;98708.71;221972;1268;26383;-72
2022/07/13 23:09:52;;;;;;;2.60;1.40;;;;;;;20.92;48.84;98706.70;222008;1268;25428;-73
2022/07/13 23:15:31;;;;;;;1.50;1.30;;;;;;;20.81;49.11;98704.39;221802;1268;22532;-72
2022/07/13 23:21:11;;;;;;;1.70;1.30;;;;;;;20.68;49.15;98703.48;221826;1268;24742;-72
2022/07/13 23:26:57;;;;;;;3.00;1.60;;;;;;;20.55;49.31;98701.18;221572;1268;25356;-72
2022/07/13 23:33:08;;;;;;;1.60;1.50;;;;;;;20.44;49.50;98698.14;221873;1268;23371;-73
2022/07/13 23:38:33;;;;;;;1.40;1.30;;;;;;;20.32;49.69;98697.68;221732;1267;24217;-73
2022/07/13 23:43:35;;;;;;;1.50;1.40;;;;;;;20.25;50.02;98692.15;221908;1268;24390;-73
2022/07/13 23:48:38;;;;;;;2.10;1.40;;;;;;;20.20;50.26;98693.05;221551;1268;25461;-72
2022/07/13 23:53:40;;;;;;;4.20;2.40;;;;;;;20.13;50.75;98692.68;221504;1268;25487;-73
2022/07/13 23:58:43;;;;;;;2.50;2.30;;;;;;;20.08;50.90;98689.22;221531;1268;25388;-74
